Time;durP1;ratioP1;P1;durP2;ratioP2;P2;SDS_P1;SDS_P2;PMS_P1;PMS_P2;Temp;Humidity;BMP_temperature;BMP_pressure;BME280_temperature;BME280_humidity;BME280_pressure;Samples;Min_cycle;Max_cycle;Signal;HPM_P1;HPM_P2
2022/10/07 00:00:43;;;;;;;;;;;9.00;99.90;;;;;;6116319;23;19932;-61
2022/10/07 00:03:09;;;;;;;;;;;8.90;99.90;;;;;;6116008;23;19932;-61
2022/10/07 00:05:34;;;;;;;;;;;8.90;99.90;;;;;;6115536;23;20370;-61
2022/10/07 00:08:00;;;;;;;;;;;8.90;99.90;;;;;;6115492;23;19932;-61
2022/10/07 00:10:26;;;;;;;;;;;9.00;99.90;;;;;;6116301;23;19964;-61
2022/10/07 00:12:52;;;;;;;;;;;8.90;99.90;;;;;;6116653;23;19929;-61
2022/10/07 00:15:18;;;;;;;;;;;8.90;99.90;;;;;;6116680;23;19925;-61
2022/10/07 00:17:44;;;;;;;;;;;8.90;99.90;;;;;;6116057;23;19925;-61
2022/10/07 00:20:09;;;;;;;;;;;8.90;99.90;;;;;;6115222;23;19971;-61
2022/10/07 00:22:35;;;;;;;;;;;8.90;99.90;;;;;;6116778;23;19971;-61
2022/10/07 00:25:00;;;;;;;;;;;8.80;99.90;;;;;;6116475;23;19929;-61
2022/10/07 00:27:26;;;;;;;;;;;8.80;99.90;;;;;;6116470;23;19925;-61
2022/10/07 00:29:51;;;;;;;;;;;8.80;99.90;;;;;;6116586;23;19928;-61
2022/10/07 00:32:17;;;;;;;;;;;8.80;99.90;;;;;;6115894;23;19959;-61
2022/10/07 00:34:42;;;;;;;;;;;8.90;99.90;;;;;;6116694;23;19925;-61
2022/10/07 00:37:08;;;;;;;;;;;8.90;99.90;;;;;;6115815;23;19928;-62
2022/10/07 00:39:33;;;;;;;;;;;8.90;99.90;;;;;;6115175;23;20397;-62
2022/10/07 00:41:59;;;;;;;;;;;8.90;99.90;;;;;;6119194;23;19925;-62
2022/10/07 00:44:31;;;;;;;;;;;8.90;99.90;;;;;;6119073;23;20404;-63
2022/10/07 00:47:15;;;;;;;;;;;8.90;99.90;;;;;;6119317;23;19928;-65
2022/10/07 00:49:45;;;;;;;;;;;9.00;99.90;;;;;;6119607;23;19925;-62
2022/10/07 00:52:13;;;;;;;;;;;9.00;99.90;;;;;;6118717;23;19929;-65
2022/10/07 00:54:39;;;;;;;;;;;9.00;99.90;;;;;;6119301;23;20386;-64
2022/10/07 00:57:05;;;;;;;;;;;9.00;99.90;;;;;;6119547;23;19925;-62
2022/10/07 00:59:30;;;;;;;;;;;9.00;99.90;;;;;;6119559;23;20366;-64
2022/10/07 01:01:56;;;;;;;;;;;9.00;99.90;;;;;;6118983;23;19925;-61
2022/10/07 01:04:21;;;;;;;;;;;9.00;99.90;;;;;;6117309;23;19929;-64
2022/10/07 01:06:47;;;;;;;;;;;9.00;99.90;;;;;;6119233;23;19925;-62
2022/10/07 01:09:13;;;;;;;;;;;9.00;99.90;;;;;;6118950;23;20370;-63
2022/10/07 01:11:41;;;;;;;;;;;9.00;99.90;;;;;;6119501;23;19959;-63
2022/10/07 01:14:14;;;;;;;;;;;9.00;99.90;;;;;;6118813;23;19948;-64
2022/10/07 01:16:46;;;;;;;;;;;9.00;99.90;;;;;;6119445;23;19925;-62
2022/10/07 01:19:23;;;;;;;;;;;8.90;99.90;;;;;;6119155;23;20007;-65
2022/10/07 01:22:04;;;;;;;;;;;8.90;99.90;;;;;;6118890;23;20412;-64
2022/10/07 01:24:45;;;;;;;;;;;8.90;99.90;;;;;;6118814;23;20419;-64
2022/10/07 01:27:15;;;;;;;;;;;8.90;99.90;;;;;;6119460;23;19979;-64
2022/10/07 01:29:44;;;;;;;;;;;8.90;99.90;;;;;;6119506;23;19951;-64
2022/10/07 01:32:10;;;;;;;;;;;9.00;99.90;;;;;;6118526;23;19929;-64
2022/10/07 01:34:36;;;;;;;;;;;9.00;99.90;;;;;;6118935;23;19970;-64
2022/10/07 01:37:04;;;;;;;;;;;9.00;99.90;;;;;;6117686;23;19936;-64
2022/10/07 01:39:32;;;;;;;;;;;8.90;99.90;;;;;;6118714;23;19955;-64
2022/10/07 01:41:58;;;;;;;;;;;8.90;99.90;;;;;;6119015;23;19925;-62
2022/10/07 01:44:27;;;;;;;;;;;8.90;99.90;;;;;;6118810;23;19925;-63
2022/10/07 01:46:52;;;;;;;;;;;9.00;99.90;;;;;;6118844;23;20058;-61
2022/10/07 01:49:18;;;;;;;;;;;8.90;99.90;;;;;;6118194;23;20340;-61
2022/10/07 01:51:45;;;;;;;;;;;8.90;99.90;;;;;;6118085;23;19925;-61
2022/10/07 01:54:11;;;;;;;;;;;8.80;99.90;;;;;;6116709;23;20401;-61
2022/10/07 01:56:55;;;;;;;;;;;8.90;99.90;;;;;;6117277;23;19925;-61
2022/10/07 01:59:46;;;;;;;;;;;8.90;99.90;;;;;;6117555;23;20076;-61
2022/10/07 02:02:34;;;;;;;;;;;8.90;99.90;;;;;;6116832;23;19929;-62
2022/10/07 02:05:15;;;;;;;;;;;8.80;99.90;;;;;;6117365;23;19931;-61
2022/10/07 02:07:40;;;;;;;;;;;8.80;99.90;;;;;;6116718;23;20259;-61
2022/10/07 02:10:06;;;;;;;;;;;8.80;99.90;;;;;;6116100;23;19967;-61
2022/10/07 02:12:43;;;;;;;;;;;8.80;99.90;;;;;;6116368;23;19965;-61
2022/10/07 02:15:12;;;;;;;;;;;8.80;99.90;;;;;;6116041;23;19948;-61
2022/10/07 02:17:41;;;;;;;;;;;8.80;99.90;;;;;;6116094;23;19979;-61
2022/10/07 02:20:09;;;;;;;;;;;9.20;99.90;;;;;;6116652;23;20145;-61
2022/10/07 02:22:35;;;;;;;;;;;8.70;99.90;;;;;;6115283;23;20427;-61
2022/10/07 02:25:01;;;;;;;;;;;8.70;99.90;;;;;;6116276;23;20004;-61
2022/10/07 02:27:29;;;;;;;;;;;8.80;99.90;;;;;;6116731;23;19970;-61
2022/10/07 02:29:58;;;;;;;;;;;8.70;99.90;;;;;;6116468;23;19964;-62
2022/10/07 02:32:25;;;;;;;;;;;8.90;99.90;;;;;;6116804;23;19948;-62
2022/10/07 02:34:53;;;;;;;;;;;8.70;99.90;;;;;;6116949;23;19956;-62
2022/10/07 02:37:23;;;;;;;;;;;8.70;99.90;;;;;;6116012;23;19931;-62
2022/10/07 02:39:49;;;;;;;;;;;8.70;99.90;;;;;;6116807;23;19925;-61
2022/10/07 02:42:18;;;;;;;;;;;8.70;99.90;;;;;;6116393;23;20245;-62
2022/10/07 02:44:52;;;;;;;;;;;8.70;99.90;;;;;;6116844;23;19925;-62
2022/10/07 02:47:27;;;;;;;;;;;8.80;99.90;;;;;;6116419;23;20449;-61
2022/10/07 02:49:56;;;;;;;;;;;8.80;99.90;;;;;;6116175;23;19929;-63
2022/10/07 02:52:22;;;;;;;;;;;8.80;99.90;;;;;;6115987;23;19928;-60
2022/10/07 02:54:55;;;;;;;;;;;9.50;99.90;;;;;;6116121;23;19956;-61
2022/10/07 02:57:22;;;;;;;;;;;8.80;99.90;;;;;;6116646;23;19925;-60
2022/10/07 02:59:48;;;;;;;;;;;8.80;99.90;;;;;;6116722;23;19982;-61
2022/10/07 03:02:16;;;;;;;;;;;8.70;99.90;;;;;;6116770;23;19932;-61
2022/10/07 03:04:42;;;;;;;;;;;8.70;99.90;;;;;;6116403;23;19929;-61
2022/10/07 03:07:08;;;;;;;;;;;9.20;99.90;;;;;;6116610;23;20354;-61
2022/10/07 03:09:34;;;;;;;;;;;8.80;99.90;;;;;;6116341;23;20373;-61
2022/10/07 03:11:59;;;;;;;;;;;8.80;99.90;;;;;;6116305;23;19996;-61
2022/10/07 03:14:25;;;;;;;;;;;8.70;99.90;;;;;;6116706;23;20148;-61
2022/10/07 03:16:51;;;;;;;;;;;8.80;99.90;;;;;;6117394;23;19929;-61
2022/10/07 03:19:17;;;;;;;;;;;8.70;99.90;;;;;;6117275;23;19925;-61
2022/10/07 03:21:42;;;;;;;;;;;8.80;99.90;;;;;;6116504;23;19929;-61
2022/10/07 03:24:08;;;;;;;;;;;8.70;99.90;;;;;;6112041;23;20422;-61
2022/10/07 03:26:34;;;;;;;;;;;8.70;99.90;;;;;;6115492;23;19952;-60
2022/10/07 03:29:00;;;;;;;;;;;8.70;99.90;;;;;;6116116;23;20014;-63
2022/10/07 03:31:26;;;;;;;;;;;8.80;99.90;;;;;;6115776;23;19928;-63
2022/10/07 03:33:55;;;;;;;;;;;8.70;99.90;;;;;;6115958;23;19929;-64
2022/10/07 03:36:22;;;;;;;;;;;8.90;99.90;;;;;;6116176;23;19960;-64
2022/10/07 03:38:47;;;;;;;;;;;8.70;99.90;;;;;;6114546;23;20347;-64
2022/10/07 03:41:13;;;;;;;;;;;8.70;99.90;;;;;;6115814;23;20271;-63
2022/10/07 03:43:38;;;;;;;;;;;8.70;99.90;;;;;;6115913;23;19925;-62
2022/10/07 03:46:04;;;;;;;;;;;8.70;99.90;;;;;;6115710;23;19971;-62
2022/10/07 03:48:30;;;;;;;;;;;8.60;99.90;;;;;;6116558;23;19955;-62
2022/10/07 03:50:56;;;;;;;;;;;8.60;99.90;;;;;;6115965;23;19975;-62
2022/10/07 03:53:22;;;;;;;;;;;8.60;99.90;;;;;;6115636;23;20271;-62
2022/10/07 03:55:48;;;;;;;;;;;8.50;99.90;;;;;;6115943;23;20351;-62
2022/10/07 03:58:13;;;;;;;;;;;8.50;99.90;;;;;;6115970;23;19972;-61
2022/10/07 04:00:40;;;;;;;;;;;8.50;99.90;;;;;;6116725;23;20510;-62
2022/10/07 04:03:06;;;;;;;;;;;8.40;99.90;;;;;;6115798;23;20252;-61
2022/10/07 04:05:32;;;;;;;;;;;8.40;99.90;;;;;;6115811;23;20356;-61
2022/10/07 04:07:58;;;;;;;;;;;8.40;99.90;;;;;;6114147;23;19925;-61
2022/10/07 04:10:24;;;;;;;;;;;8.30;99.90;;;;;;6115844;23;19925;-61
2022/10/07 04:12:50;;;;;;;;;;;8.30;99.90;;;;;;6115994;23;20220;-62
2022/10/07 04:15:16;;;;;;;;;;;8.30;99.90;;;;;;6115549;23;19932;-61
2022/10/07 04:17:42;;;;;;;;;;;8.30;99.90;;;;;;6116536;23;19929;-61
2022/10/07 04:20:08;;;;;;;;;;;8.30;99.90;;;;;;6115882;23;19925;-61
2022/10/07 04:22:33;;;;;;;;;;;8.30;99.90;;;;;;6116322;23;20270;-61
2022/10/07 04:27:44;;;;;;;;;;;8.60;99.90;;;;;;6116146;23;20000;-61
2022/10/07 04:30:10;;;;;;;;;;;8.40;99.90;;;;;;6115461;23;19932;-61
2022/10/07 04:32:35;;;;;;;;;;;8.40;99.90;;;;;;6114924;23;19925;-62
2022/10/07 04:35:02;;;;;;;;;;;8.40;99.90;;;;;;6114960;23;20902;-61
2022/10/07 04:37:28;;;;;;;;;;;8.40;99.90;;;;;;6115263;23;19925;-61
2022/10/07 04:39:54;;;;;;;;;;;8.40;99.90;;;;;;6115121;23;19970;-64
2022/10/07 04:45:04;;;;;;;;;;;8.40;99.90;;;;;;6115907;23;19925;-61
2022/10/07 04:47:30;;;;;;;;;;;8.40;99.90;;;;;;6113993;23;19932;-61
2022/10/07 04:49:55;;;;;;;;;;;8.40;99.90;;;;;;6115919;23;19925;-62
2022/10/07 04:52:21;;;;;;;;;;;8.50;99.90;;;;;;6115727;23;19933;-62
2022/10/07 04:54:46;;;;;;;;;;;8.50;99.90;;;;;;6115753;23;19978;-62
2022/10/07 04:57:12;;;;;;;;;;;8.40;99.90;;;;;;6115612;23;19932;-64
2022/10/07 04:59:38;;;;;;;;;;;8.50;99.90;;;;;;6115672;23;19925;-62
2022/10/07 05:02:03;;;;;;;;;;;8.50;99.90;;;;;;6115270;23;19932;-65
2022/10/07 05:04:29;;;;;;;;;;;8.40;99.90;;;;;;6116358;23;19924;-62
2022/10/07 05:06:54;;;;;;;;;;;7.20;99.90;;;;;;6115369;23;19924;-64
2022/10/07 05:09:20;;;;;;;;;;;8.40;99.90;;;;;;6115815;23;20263;-64
2022/10/07 05:11:47;;;;;;;;;;;8.50;99.90;;;;;;6114124;23;19924;-65
2022/10/07 05:14:12;;;;;;;;;;;8.40;99.90;;;;;;6115690;23;19935;-64
2022/10/07 05:16:38;;;;;;;;;;;8.40;99.90;;;;;;6115606;23;19929;-62
2022/10/07 05:19:04;;;;;;;;;;;8.40;99.90;;;;;;6115685;23;19925;-62
2022/10/07 05:21:29;;;;;;;;;;;8.40;99.90;;;;;;6115280;23;19925;-62
2022/10/07 05:23:55;;;;;;;;;;;8.40;99.90;;;;;;6115726;23;19932;-62
2022/10/07 05:26:20;;;;;;;;;;;8.40;99.90;;;;;;6114669;23;19924;-62
2022/10/07 05:28:48;;;;;;;;;;;8.40;99.90;;;;;;6117048;23;19948;-61
2022/10/07 05:31:14;;;;;;;;;;;8.40;99.90;;;;;;6116616;23;19969;-61
2022/10/07 05:33:39;;;;;;;;;;;8.40;99.90;;;;;;6115517;23;19960;-62
2022/10/07 05:36:06;;;;;;;;;;;8.40;99.90;;;;;;6117217;23;19986;-61
2022/10/07 05:38:32;;;;;;;;;;;8.30;99.90;;;;;;6117283;23;19936;-61
2022/10/07 05:40:59;;;;;;;;;;;8.30;99.90;;;;;;6114557;23;20306;-61
2022/10/07 05:43:28;;;;;;;;;;;8.40;99.90;;;;;;6114883;23;19987;-61
2022/10/07 05:46:00;;;;;;;;;;;8.40;99.90;;;;;;6115719;23;19932;-61
2022/10/07 05:48:27;;;;;;;;;;;8.40;99.90;;;;;;6115726;23;19996;-62
2022/10/07 05:50:53;;;;;;;;;;;8.40;99.90;;;;;;6114089;23;20000;-62
2022/10/07 05:53:19;;;;;;;;;;;8.40;99.90;;;;;;6116836;23;19971;-62
2022/10/07 05:55:44;;;;;;;;;;;8.40;99.90;;;;;;6117054;23;19932;-62
2022/10/07 05:58:12;;;;;;;;;;;8.40;99.90;;;;;;6116895;23;19924;-62
2022/10/07 06:00:41;;;;;;;;;;;8.40;99.90;;;;;;6116237;23;20239;-61
2022/10/07 06:03:06;;;;;;;;;;;8.50;99.90;;;;;;6116529;23;19964;-62
2022/10/07 06:05:32;;;;;;;;;;;8.50;99.90;;;;;;6109093;23;19961;-62
2022/10/07 06:07:58;;;;;;;;;;;8.50;99.90;;;;;;6116823;23;20281;-62
2022/10/07 06:13:08;;;;;;;;;;;8.60;99.90;;;;;;6115734;23;19947;-62
2022/10/07 06:15:34;;;;;;;;;;;8.60;99.90;;;;;;6115734;23;20304;-62
2022/10/07 06:17:59;;;;;;;;;;;8.60;99.90;;;;;;6117050;23;19925;-62
2022/10/07 06:20:25;;;;;;;;;;;8.70;99.90;;;;;;6114542;23;19925;-62
2022/10/07 06:22:51;;;;;;;;;;;8.70;99.90;;;;;;6116311;23;19949;-62
2022/10/07 06:25:17;;;;;;;;;;;8.80;99.90;;;;;;6116483;23;20241;-62
2022/10/07 06:27:43;;;;;;;;;;;8.80;99.90;;;;;;6114621;23;19924;-64
2022/10/07 06:30:08;;;;;;;;;;;8.90;99.90;;;;;;6116338;23;19925;-62
2022/10/07 06:32:34;;;;;;;;;;;8.90;99.90;;;;;;6115991;23;19970;-62
2022/10/07 06:34:59;;;;;;;;;;;9.00;99.90;;;;;;6114849;23;19932;-65
2022/10/07 06:37:28;;;;;;;;;;;9.00;99.90;;;;;;6114300;23;20377;-63
2022/10/07 06:39:53;;;;;;;;;;;10.80;99.90;;;;;;6115924;23;20008;-64
2022/10/07 06:42:19;;;;;;;;;;;9.20;99.90;;;;;;6115966;23;19952;-62
2022/10/07 06:44:45;;;;;;;;;;;9.30;99.90;;;;;;6116519;23;20619;-62
2022/10/07 06:47:10;;;;;;;;;;;9.30;99.90;;;;;;6115997;23;20351;-62
2022/10/07 06:49:36;;;;;;;;;;;9.40;99.90;;;;;;6115285;23;20426;-62
2022/10/07 06:52:01;;;;;;;;;;;9.50;99.90;;;;;;6116172;23;20332;-64
2022/10/07 06:54:27;;;;;;;;;;;9.60;99.90;;;;;;6114844;23;20029;-62
2022/10/07 06:56:52;;;;;;;;;;;9.70;99.90;;;;;;6115944;23;19975;-61
2022/10/07 06:59:18;;;;;;;;;;;10.20;99.90;;;;;;6114548;23;19925;-62
2022/10/07 07:01:43;;;;;;;;;;;9.90;99.90;;;;;;6116531;23;20261;-61
2022/10/07 07:04:09;;;;;;;;;;;10.00;99.90;;;;;;6115925;23;20283;-62
2022/10/07 07:06:35;;;;;;;;;;;10.10;99.90;;;;;;6117406;23;20312;-62
2022/10/07 07:09:03;;;;;;;;;;;10.20;99.90;;;;;;6115020;23;19925;-62
2022/10/07 07:11:40;;;;;;;;;;;10.20;99.90;;;;;;6116449;23;19955;-62
2022/10/07 07:14:07;;;;;;;;;;;10.20;99.90;;;;;;6116336;23;20344;-62
2022/10/07 07:16:33;;;;;;;;;;;10.30;99.90;;;;;;6114383;23;19936;-63
2022/10/07 07:19:00;;;;;;;;;;;10.30;99.90;;;;;;6089814;23;19925;-62
2022/10/07 07:21:27;;;;;;;;;;;10.30;99.90;;;;;;6116486;23;20258;-62
2022/10/07 07:23:53;;;;;;;;;;;10.30;99.90;;;;;;6115831;23;20005;-62
2022/10/07 07:26:19;;;;;;;;;;;10.40;99.90;;;;;;6116089;23;19971;-61
2022/10/07 07:28:51;;;;;;;;;;;10.40;99.90;;;;;;6115747;23;20358;-62
2022/10/07 07:31:17;;;;;;;;;;;11.80;99.90;;;;;;6116651;23;19970;-62
2022/10/07 07:33:42;;;;;;;;;;;10.60;99.90;;;;;;6114186;23;20003;-61
2022/10/07 07:36:14;;;;;;;;;;;10.70;99.90;;;;;;6111462;23;19925;-62
2022/10/07 07:38:41;;;;;;;;;;;10.70;99.90;;;;;;6115769;23;19925;-63
2022/10/07 07:41:06;;;;;;;;;;;10.80;99.90;;;;;;6115801;23;19924;-62
2022/10/07 07:43:32;;;;;;;;;;;10.90;99.90;;;;;;6115078;23;20221;-61
2022/10/07 07:45:57;;;;;;;;;;;11.00;99.90;;;;;;6115581;23;19968;-61
2022/10/07 07:48:23;;;;;;;;;;;11.10;99.90;;;;;;6115623;23;19959;-62
2022/10/07 07:50:48;;;;;;;;;;;11.20;99.90;;;;;;6115422;23;19925;-63
2022/10/07 07:53:14;;;;;;;;;;;11.30;99.90;;;;;;6115894;23;19925;-62
2022/10/07 07:55:50;;;;;;;;;;;11.50;99.90;;;;;;6115710;23;19925;-62
2022/10/07 07:58:16;;;;;;;;;;;11.70;99.90;;;;;;6115753;23;20083;-62
2022/10/07 08:00:42;;;;;;;;;;;11.80;99.90;;;;;;6116218;23;19929;-62
2022/10/07 08:03:07;;;;;;;;;;;11.90;99.90;;;;;;6115692;23;20007;-63
2022/10/07 08:05:33;;;;;;;;;;;12.00;99.90;;;;;;6115736;23;20256;-61
2022/10/07 08:07:59;;;;;;;;;;;12.10;99.90;;;;;;6117040;23;19925;-62
2022/10/07 08:10:25;;;;;;;;;;;12.20;99.90;;;;;;6115618;23;19932;-65
2022/10/07 08:12:50;;;;;;;;;;;12.30;99.90;;;;;;6116065;23;19928;-63
2022/10/07 08:15:16;;;;;;;;;;;12.30;99.90;;;;;;6113945;23;19925;-62
2022/10/07 08:17:42;;;;;;;;;;;12.40;99.90;;;;;;6115606;23;19960;-64
2022/10/07 08:20:09;;;;;;;;;;;12.50;99.90;;;;;;6115606;23;20320;-63
2022/10/07 08:22:35;;;;;;;;;;;12.50;99.90;;;;;;6115999;23;19931;-64
2022/10/07 08:25:00;;;;;;;;;;;12.70;99.90;;;;;;6115344;23;19960;-62
2022/10/07 08:27:27;;;;;;;;;;;12.90;99.90;;;;;;6115938;23;19925;-63
2022/10/07 08:29:53;;;;;;;;;;;12.90;99.90;;;;;;6115696;23;20011;-62
2022/10/07 08:32:18;;;;;;;;;;;12.90;99.90;;;;;;6115548;23;19960;-62
2022/10/07 08:34:44;;;;;;;;;;;13.00;99.90;;;;;;6115743;23;19953;-62
2022/10/07 08:37:09;;;;;;;;;;;13.10;99.90;;;;;;6115255;23;19929;-62
2022/10/07 08:39:35;;;;;;;;;;;13.30;99.90;;;;;;6113877;23;20057;-62
2022/10/07 08:42:11;;;;;;;;;;;13.40;99.90;;;;;;6115572;23;19936;-63
2022/10/07 08:44:45;;;;;;;;;;;13.60;99.90;;;;;;6115630;23;20399;-63
2022/10/07 08:47:16;;;;;;;;;;;13.60;99.90;;;;;;6114959;23;19929;-64
2022/10/07 08:49:53;;;;;;;;;;;13.80;99.90;;;;;;6115143;23;19952;-66
2022/10/07 08:52:49;;;;;;;;;;;14.00;99.90;;;;;;6115034;23;20617;-62
2022/10/07 08:55:16;;;;;;;;;;;14.10;99.90;;;;;;6121473;23;20347;-64
2022/10/07 08:57:41;;;;;;;;;;;14.40;99.90;;;;;;6114501;23;19925;-65
2022/10/07 09:00:09;;;;;;;;;;;14.50;99.90;;;;;;6115803;23;20305;-63
2022/10/07 09:02:35;;;;;;;;;;;16.00;99.90;;;;;;6114164;23;20397;-64
2022/10/07 09:05:00;;;;;;;;;;;15.00;99.90;;;;;;6116422;23;19925;-63
2022/10/07 09:07:39;;;;;;;;;;;15.30;99.90;;;;;;6114628;23;19932;-65
2022/10/07 09:10:16;;;;;;;;;;;15.80;99.90;;;;;;6116412;23;20300;-65
2022/10/07 09:12:56;;;;;;;;;;;16.30;99.90;;;;;;6116453;23;19933;-65
2022/10/07 09:15:42;;;;;;;;;;;16.60;99.90;;;;;;6117001;23;19999;-66
2022/10/07 09:18:23;;;;;;;;;;;16.30;99.90;;;;;;6116455;23;20443;-66
2022/10/07 09:20:52;;;;;;;;;;;16.90;99.90;;;;;;6116780;23;19978;-64
2022/10/07 09:23:19;;;;;;;;;;;17.10;99.90;;;;;;6116718;23;19925;-63
2022/10/07 09:25:45;;;;;;;;;;;17.10;99.90;;;;;;6116689;23;19929;-63
2022/10/07 09:28:12;;;;;;;;;;;17.20;99.90;;;;;;6116794;23;19988;-63
2022/10/07 09:30:38;;;;;;;;;;;17.40;99.90;;;;;;6116755;23;20274;-62
2022/10/07 09:33:07;;;;;;;;;;;17.60;99.90;;;;;;6116223;23;19932;-65
2022/10/07 09:35:34;;;;;;;;;;;17.80;99.90;;;;;;6116099;23;19924;-63
2022/10/07 09:38:02;;;;;;;;;;;17.80;99.90;;;;;;6116798;23;19970;-64
2022/10/07 09:40:30;;;;;;;;;;;17.70;99.90;;;;;;6116908;23;20415;-64
2022/10/07 09:42:56;;;;;;;;;;;18.20;99.90;;;;;;6116301;23;19947;-63
2022/10/07 09:45:33;;;;;;;;;;;18.30;99.90;;;;;;6116970;23;19929;-64
2022/10/07 09:48:06;;;;;;;;;;;18.30;99.90;;;;;;6115870;23;19996;-63
2022/10/07 09:50:40;;;;;;;;;;;18.30;99.90;;;;;;6116568;23;20260;-65
2022/10/07 09:53:15;;;;;;;;;;;18.80;99.90;;;;;;6115741;23;19925;-63
2022/10/07 09:55:42;;;;;;;;;;;18.30;99.90;;;;;;6115951;23;19948;-65
2022/10/07 09:58:23;;;;;;;;;;;18.50;99.90;;;;;;6115912;23;19932;-66
2022/10/07 10:00:50;;;;;;;;;;;18.40;99.90;;;;;;6116268;23;19925;-63
2022/10/07 10:03:16;;;;;;;;;;;18.40;99.90;;;;;;6116728;23;19925;-64
2022/10/07 10:05:56;;;;;;;;;;;18.20;99.90;;;;;;6115571;23;19955;-65
2022/10/07 10:08:30;;;;;;;;;;;18.20;99.90;;;;;;6115306;23;20248;-64
2022/10/07 10:10:56;;;;;;;;;;;18.60;99.90;;;;;;6117259;23;19925;-64
2022/10/07 10:13:29;;;;;;;;;;;18.30;99.90;;;;;;6115762;23;20387;-64
2022/10/07 10:15:55;;;;;;;;;;;18.40;99.90;;;;;;6113007;23;20331;-64
2022/10/07 10:18:20;;;;;;;;;;;18.80;99.90;;;;;;6115657;23;19931;-65
2022/10/07 10:20:46;;;;;;;;;;;18.30;99.90;;;;;;6116728;23;19925;-64
2022/10/07 10:23:24;;;;;;;;;;;17.80;99.90;;;;;;6115578;23;19936;-65
2022/10/07 10:29:04;;;;;;;;;;;17.50;99.90;;;;;;6115957;23;19925;-63
2022/10/07 10:31:48;;;;;;;;;;;17.40;99.90;;;;;;6115443;23;19925;-67
2022/10/07 10:34:19;;;;;;;;;;;17.50;99.90;;;;;;6115480;23;19925;-67
2022/10/07 10:36:50;;;;;;;;;;;17.40;99.90;;;;;;6116119;23;19931;-64
2022/10/07 10:39:46;;;;;;;;;;;17.20;99.90;;;;;;6115904;23;19925;-64
2022/10/07 10:42:13;;;;;;;;;;;17.50;99.90;;;;;;6122435;23;20500;-63
2022/10/07 10:44:42;;;;;;;;;;;17.60;99.90;;;;;;6116727;23;20009;-64
2022/10/07 10:47:21;;;;;;;;;;;17.80;99.90;;;;;;6116842;23;19931;-65
2022/10/07 10:50:10;;;;;;;;;;;17.70;99.90;;;;;;6115636;23;20419;-64
2022/10/07 10:52:39;;;;;;;;;;;17.80;99.90;;;;;;6116582;23;19925;-64
2022/10/07 10:55:16;;;;;;;;;;;17.90;99.90;;;;;;6115801;23;19970;-66
2022/10/07 10:57:51;;;;;;;;;;;17.60;99.90;;;;;;6116333;23;20014;-64
2022/10/07 11:00:18;;;;;;;;;;;17.50;99.90;;;;;;6116460;23;19925;-64
2022/10/07 11:02:58;;;;;;;;;;;18.00;99.90;;;;;;6115336;23;19944;-65
2022/10/07 11:05:34;;;;;;;;;;;17.70;99.90;;;;;;6115631;23;19925;-64
2022/10/07 11:08:09;;;;;;;;;;;18.00;99.90;;;;;;6115484;23;19935;-66
2022/10/07 11:10:53;;;;;;;;;;;18.20;99.90;;;;;;6115361;23;19925;-67
2022/10/07 11:13:26;;;;;;;;;;;18.30;99.90;;;;;;6115706;23;19925;-64
2022/10/07 11:15:58;;;;;;;;;;;18.60;99.90;;;;;;6114865;23;19924;-65
2022/10/07 11:18:59;;;;;;;;;;;18.70;99.90;;;;;;6115558;23;19925;-63
2022/10/07 11:21:39;;;;;;;;;;;18.90;99.90;;;;;;6145644;23;20048;-65
2022/10/07 11:24:34;;;;;;;;;;;18.70;99.90;;;;;;6114575;23;19925;-63
2022/10/07 11:27:18;;;;;;;;;;;19.10;99.90;;;;;;6115202;23;19921;-64
2022/10/07 11:29:47;;;;;;;;;;;19.20;99.90;;;;;;6115820;23;19925;-63
2022/10/07 11:32:34;;;;;;;;;;;19.10;99.90;;;;;;6116103;23;20311;-63
2022/10/07 11:35:15;;;;;;;;;;;19.20;99.90;;;;;;6116258;23;19925;-63
2022/10/07 11:37:49;;;;;;;;;;;19.70;99.90;;;;;;6116193;23;19925;-64
2022/10/07 11:40:15;;;;;;;;;;;19.70;99.90;;;;;;6116690;23;19925;-63
2022/10/07 11:42:42;;;;;;;;;;;20.00;99.90;;;;;;6116321;23;20340;-65
2022/10/07 11:45:16;;;;;;;;;;;20.40;99.90;;;;;;6116001;23;19925;-63
2022/10/07 11:48:03;;;;;;;;;;;20.40;99.90;;;;;;6115623;23;19931;-66
2022/10/07 11:50:31;;;;;;;;;;;20.90;99.90;;;;;;6113473;23;20257;-63
2022/10/07 11:53:02;;;;;;;;;;;20.60;99.90;;;;;;6115512;23;19925;-63
2022/10/07 11:55:32;;;;;;;;;;;21.30;99.90;;;;;;6115520;23;19929;-64
2022/10/07 11:57:58;;;;;;;;;;;21.40;99.90;;;;;;6115372;23;19929;-64
2022/10/07 12:00:26;;;;;;;;;;;22.10;99.90;;;;;;6115893;23;19947;-63
2022/10/07 12:02:53;;;;;;;;;;;22.10;99.90;;;;;;6116111;23;20004;-63
2022/10/07 12:05:34;;;;;;;;;;;22.20;99.90;;;;;;6115633;23;19932;-64
2022/10/07 12:08:09;;;;;;;;;;;21.70;99.90;;;;;;6116057;23;19992;-64
2022/10/07 12:10:35;;;;;;;;;;;21.90;99.90;;;;;;6115762;23;20343;-63
2022/10/07 12:13:09;;;;;;;;;;;21.40;99.90;;;;;;6116011;23;19931;-65
2022/10/07 12:15:40;;;;;;;;;;;20.70;99.90;;;;;;6115579;23;19925;-65
2022/10/07 12:18:06;;;;;;;;;;;20.20;99.90;;;;;;6116164;23;19948;-64
2022/10/07 12:20:32;;;;;;;;;;;20.20;99.90;;;;;;6115831;23;19952;-64
2022/10/07 12:23:15;;;;;;;;;;;20.20;99.90;;;;;;6116349;23;19952;-64
2022/10/07 12:25:42;;;;;;;;;;;20.30;99.90;;;;;;6114501;23;20278;-64
2022/10/07 12:28:14;;;;;;;;;;;20.60;99.90;;;;;;6113448;23;19956;-63
2022/10/07 12:30:49;;;;;;;;;;;20.40;99.90;;;;;;6113273;23;19925;-66
2022/10/07 12:33:15;;;;;;;;;;;20.00;99.90;;;;;;6114203;23;20240;-63
2022/10/07 12:35:42;;;;;;;;;;;19.80;99.90;;;;;;6113476;23;19925;-63
2022/10/07 12:38:11;;;;;;;;;;;19.40;99.90;;;;;;6113644;23;20315;-63
2022/10/07 12:40:37;;;;;;;;;;;19.50;99.90;;;;;;6113674;23;19947;-63
2022/10/07 12:43:09;;;;;;;;;;;19.20;99.90;;;;;;6114766;23;20332;-63
2022/10/07 12:45:37;;;;;;;;;;;19.00;99.90;;;;;;6111899;23;19992;-63
2022/10/07 12:48:03;;;;;;;;;;;18.90;99.90;;;;;;6114868;23;20008;-63
2022/10/07 12:50:30;;;;;;;;;;;18.80;99.90;;;;;;6113542;23;19957;-63
2022/10/07 12:52:57;;;;;;;;;;;18.70;99.90;;;;;;6113718;23;20379;-63
2022/10/07 12:55:36;;;;;;;;;;;18.90;99.90;;;;;;6113050;23;19979;-63
2022/10/07 13:01:00;;;;;;;;;;;18.90;99.90;;;;;;6113123;23;19948;-64
2022/10/07 13:03:38;;;;;;;;;;;18.60;99.90;;;;;;6112202;23;20020;-64
2022/10/07 13:06:22;;;;;;;;;;;18.60;99.90;;;;;;6111479;23;19964;-64
2022/10/07 13:08:47;;;;;;;;;;;18.60;99.90;;;;;;6111968;23;19978;-63
2022/10/07 13:11:28;;;;;;;;;;;18.30;99.90;;;;;;6114569;23;20274;-63
2022/10/07 13:14:15;;;;;;;;;;;18.10;99.90;;;;;;6112128;23;20023;-63
2022/10/07 13:17:07;;;;;;;;;;;18.20;99.90;;;;;;6113887;23;19925;-63
2022/10/07 13:19:40;;;;;;;;;;;18.20;99.90;;;;;;6112421;23;19929;-63
2022/10/07 13:22:11;;;;;;;;;;;18.50;99.90;;;;;;6114209;23;19964;-65
2022/10/07 13:24:47;;;;;;;;;;;18.50;99.90;;;;;;6113296;23;19956;-64
2022/10/07 13:27:14;;;;;;;;;;;18.30;99.90;;;;;;6113460;23;20359;-63
2022/10/07 13:29:40;;;;;;;;;;;18.40;99.90;;;;;;6114453;23;19932;-63
2022/10/07 13:32:11;;;;;;;;;;;18.40;99.90;;;;;;6113764;23;19925;-63
2022/10/07 13:34:37;;;;;;;;;;;18.20;99.90;;;;;;6112017;23;20343;-63
2022/10/07 13:37:22;;;;;;;;;;;18.30;99.90;;;;;;6112222;23;19983;-63
2022/10/07 13:39:48;;;;;;;;;;;18.40;99.90;;;;;;6112717;23;19925;-64
2022/10/07 13:42:13;;;;;;;;;;;18.70;99.90;;;;;;6113639;23;19925;-64
2022/10/07 13:44:41;;;;;;;;;;;18.90;99.90;;;;;;6113265;23;19931;-63
2022/10/07 13:47:10;;;;;;;;;;;18.80;99.90;;;;;;6113843;23;19924;-64
2022/10/07 13:49:43;;;;;;;;;;;18.90;99.90;;;;;;6113688;23;19979;-63
2022/10/07 13:52:28;;;;;;;;;;;18.60;99.90;;;;;;6115264;23;19925;-63
2022/10/07 13:54:53;;;;;;;;;;;18.50;99.90;;;;;;6115963;23;19974;-63
2022/10/07 13:57:20;;;;;;;;;;;18.50;99.90;;;;;;6116177;23;19925;-65
2022/10/07 13:59:46;;;;;;;;;;;18.40;99.90;;;;;;6116117;23;19924;-68
2022/10/07 14:02:15;;;;;;;;;;;18.40;99.90;;;;;;6116861;23;19925;-67
2022/10/07 14:04:49;;;;;;;;;;;18.20;99.90;;;;;;6115577;23;20390;-67
2022/10/07 14:07:15;;;;;;;;;;;18.20;99.90;;;;;;6116809;23;20358;-67
2022/10/07 14:09:41;;;;;;;;;;;18.40;99.90;;;;;;6116265;23;19925;-64
2022/10/07 14:12:09;;;;;;;;;;;18.50;99.90;;;;;;6111608;23;20007;-64
2022/10/07 14:14:40;;;;;;;;;;;18.50;99.90;;;;;;6113178;23;19925;-64
2022/10/07 14:17:22;;;;;;;;;;;18.30;99.90;;;;;;6114816;23;20319;-63
2022/10/07 14:19:57;;;;;;;;;;;18.00;99.90;;;;;;6115370;23;20304;-63
2022/10/07 14:22:42;;;;;;;;;;;18.00;99.90;;;;;;6114175;23;19929;-64
2022/10/07 14:25:36;;;;;;;;;;;17.70;99.90;;;;;;6116343;23;20151;-63
2022/10/07 14:28:19;;;;;;;;;;;17.70;99.90;;;;;;6121018;23;19929;-63
2022/10/07 14:36:23;;;;;;;;;;;17.70;99.90;;;;;;6115586;23;19968;-64
2022/10/07 14:38:49;;;;;;;;;;;17.50;99.90;;;;;;6115749;23;20389;-64
2022/10/07 14:41:20;;;;;;;;;;;17.60;99.90;;;;;;6116463;23;19991;-64
2022/10/07 14:43:46;;;;;;;;;;;17.60;99.90;;;;;;6116788;23;19928;-63
2022/10/07 14:46:15;;;;;;;;;;;17.40;99.90;;;;;;6114024;23;20008;-65
2022/10/07 14:48:41;;;;;;;;;;;17.40;99.90;;;;;;6115689;23;19925;-63
2022/10/07 14:51:06;;;;;;;;;;;17.40;99.90;;;;;;6114779;23;19931;-63
2022/10/07 14:53:33;;;;;;;;;;;17.30;99.90;;;;;;6113204;23;20344;-63
2022/10/07 14:55:58;;;;;;;;;;;17.40;99.90;;;;;;6112356;23;20378;-63